sensor_id;sensor_type;location;lat;lon;timestamp;temperature;humidity
25949;DHT22;13961;51.178;4.448;2023-02-19T00:01:19;11.80;99.90
25949;DHT22;13961;51.178;4.448;2023-02-19T00:03:58;11.80;99.90
25949;DHT22;13961;51.178;4.448;2023-02-19T00:06:26;11.70;99.90
25949;DHT22;13961;51.178;4.448;2023-02-19T00:08:52;11.80;99.90
25949;DHT22;13961;51.178;4.448;2023-02-19T00:11:20;11.70;99.90
25949;DHT22;13961;51.178;4.448;2023-02-19T00:13:49;11.60;99.90
25949;DHT22;13961;51.178;4.448;2023-02-19T00:16:20;11.50;99.90
25949;DHT22;13961;51.178;4.448;2023-02-19T00:18:46;11.60;99.90
25949;DHT22;13961;51.178;4.448;2023-02-19T00:21:13;11.50;99.90
25949;DHT22;13961;51.178;4.448;2023-02-19T00:23:39;11.50;99.90
25949;DHT22;13961;51.178;4.448;2023-02-19T00:26:06;11.60;99.90
25949;DHT22;13961;51.178;4.448;2023-02-19T00:28:33;11.60;99.90
25949;DHT22;13961;51.178;4.448;2023-02-19T00:34:04;11.50;99.90
25949;DHT22;13961;51.178;4.448;2023-02-19T00:36:31;11.50;99.90
25949;DHT22;13961;51.178;4.448;2023-02-19T00:38:58;11.60;99.90
25949;DHT22;13961;51.178;4.448;2023-02-19T00:41:24;11.60;99.90
25949;DHT22;13961;51.178;4.448;2023-02-19T00:43:53;11.60;99.90
25949;DHT22;13961;51.178;4.448;2023-02-19T00:46:28;11.70;99.90
25949;DHT22;13961;51.178;4.448;2023-02-19T00:48:54;11.60;99.90
25949;DHT22;13961;51.178;4.448;2023-02-19T00:51:23;11.60;99.90
25949;DHT22;13961;51.178;4.448;2023-02-19T00:53:53;11.70;99.90
25949;DHT22;13961;51.178;4.448;2023-02-19T00:56:22;11.70;99.90
25949;DHT22;13961;51.178;4.448;2023-02-19T00:58:48;11.70;99.90
25949;DHT22;13961;51.178;4.448;2023-02-19T01:01:14;11.70;99.90
25949;DHT22;13961;51.178;4.448;2023-02-19T01:03:40;11.70;99.90
25949;DHT22;13961;51.178;4.448;2023-02-19T01:06:07;11.40;99.90
25949;DHT22;13961;51.178;4.448;2023-02-19T01:08:34;11.50;99.90
25949;DHT22;13961;51.178;4.448;2023-02-19T01:11:00;11.50;99.90
25949;DHT22;13961;51.178;4.448;2023-02-19T01:13:26;11.50;99.90
25949;DHT22;13961;51.178;4.448;2023-02-19T01:15:53;11.40;99.90
25949;DHT22;13961;51.178;4.448;2023-02-19T01:18:19;11.50;99.90
25949;DHT22;13961;51.178;4.448;2023-02-19T01:20:45;11.60;99.90
25949;DHT22;13961;51.178;4.448;2023-02-19T01:23:11;11.60;99.90
25949;DHT22;13961;51.178;4.448;2023-02-19T01:25:41;11.70;99.90
25949;DHT22;13961;51.178;4.448;2023-02-19T01:28:07;11.70;99.90
25949;DHT22;13961;51.178;4.448;2023-02-19T01:30:34;11.50;99.90
25949;DHT22;13961;51.178;4.448;2023-02-19T01:33:03;11.80;99.90
25949;DHT22;13961;51.178;4.448;2023-02-19T01:35:28;11.50;99.90
25949;DHT22;13961;51.178;4.448;2023-02-19T01:37:54;11.60;99.90
25949;DHT22;13961;51.178;4.448;2023-02-19T01:40:21;11.50;99.90
25949;DHT22;13961;51.178;4.448;2023-02-19T01:42:47;11.50;99.90
25949;DHT22;13961;51.178;4.448;2023-02-19T01:45:36;11.60;99.90
25949;DHT22;13961;51.178;4.448;2023-02-19T01:50:33;11.40;99.90
25949;DHT22;13961;51.178;4.448;2023-02-19T01:53:02;11.40;99.90
25949;DHT22;13961;51.178;4.448;2023-02-19T01:55:30;11.40;99.90
25949;DHT22;13961;51.178;4.448;2023-02-19T01:58:00;11.30;99.90
25949;DHT22;13961;51.178;4.448;2023-02-19T02:00:26;11.20;99.90
25949;DHT22;13961;51.178;4.448;2023-02-19T02:02:54;11.30;99.90
25949;DHT22;13961;51.178;4.448;2023-02-19T02:05:38;11.30;99.90
25949;DHT22;13961;51.178;4.448;2023-02-19T02:08:04;11.30;99.90
25949;DHT22;13961;51.178;4.448;2023-02-19T02:10:50;11.40;99.90
25949;DHT22;13961;51.178;4.448;2023-02-19T02:13:17;11.60;99.90
25949;DHT22;13961;51.178;4.448;2023-02-19T02:18:55;11.60;99.90
25949;DHT22;13961;51.178;4.448;2023-02-19T02:33:20;11.30;99.90
25949;DHT22;13961;51.178;4.448;2023-02-19T02:35:52;11.30;99.90
25949;DHT22;13961;51.178;4.448;2023-02-19T02:38:24;11.40;99.90
25949;DHT22;13961;51.178;4.448;2023-02-19T02:40:55;11.40;99.90
25949;DHT22;13961;51.178;4.448;2023-02-19T02:43:21;11.50;99.90
25949;DHT22;13961;51.178;4.448;2023-02-19T02:45:47;11.50;99.90
25949;DHT22;13961;51.178;4.448;2023-02-19T02:51:03;11.60;99.90
25949;DHT22;13961;51.178;4.448;2023-02-19T02:56:34;11.60;99.90
25949;DHT22;13961;51.178;4.448;2023-02-19T02:59:03;11.60;99.90
25949;DHT22;13961;51.178;4.448;2023-02-19T03:01:53;11.50;99.90
25949;DHT22;13961;51.178;4.448;2023-02-19T03:07:55;11.50;99.90
25949;DHT22;13961;51.178;4.448;2023-02-19T03:13:16;11.50;99.90
25949;DHT22;13961;51.178;4.448;2023-02-19T03:16:07;11.50;99.90
25949;DHT22;13961;51.178;4.448;2023-02-19T03:18:53;11.30;99.90
25949;DHT22;13961;51.178;4.448;2023-02-19T03:21:40;11.40;99.90
25949;DHT22;13961;51.178;4.448;2023-02-19T03:24:09;11.50;99.90
25949;DHT22;13961;51.178;4.448;2023-02-19T03:26:55;11.40;99.90
25949;DHT22;13961;51.178;4.448;2023-02-19T03:29:25;11.20;99.90
25949;DHT22;13961;51.178;4.448;2023-02-19T03:32:17;11.30;99.90
25949;DHT22;13961;51.178;4.448;2023-02-19T03:34:47;11.50;99.90
25949;DHT22;13961;51.178;4.448;2023-02-19T03:37:29;11.60;99.90
25949;DHT22;13961;51.178;4.448;2023-02-19T03:39:57;11.60;99.90
25949;DHT22;13961;51.178;4.448;2023-02-19T03:48:39;11.60;99.90
25949;DHT22;13961;51.178;4.448;2023-02-19T04:02:22;11.50;99.90
25949;DHT22;13961;51.178;4.448;2023-02-19T04:04:26;11.50;99.90
25949;DHT22;13961;51.178;4.448;2023-02-19T04:06:55;11.40;99.90
25949;DHT22;13961;51.178;4.448;2023-02-19T04:09:24;11.40;99.90
25949;DHT22;13961;51.178;4.448;2023-02-19T04:11:51;11.30;99.90
25949;DHT22;13961;51.178;4.448;2023-02-19T04:17:00;11.30;99.90
25949;DHT22;13961;51.178;4.448;2023-02-19T04:19:26;11.30;99.90
25949;DHT22;13961;51.178;4.448;2023-02-19T04:21:55;11.20;99.90
25949;DHT22;13961;51.178;4.448;2023-02-19T04:24:31;11.20;99.90
25949;DHT22;13961;51.178;4.448;2023-02-19T04:27:02;11.20;99.90
25949;DHT22;13961;51.178;4.448;2023-02-19T04:29:29;11.30;99.90
25949;DHT22;13961;51.178;4.448;2023-02-19T04:31:54;11.20;99.90
25949;DHT22;13961;51.178;4.448;2023-02-19T04:34:20;11.40;99.90
25949;DHT22;13961;51.178;4.448;2023-02-19T04:36:46;11.30;99.90
25949;DHT22;13961;51.178;4.448;2023-02-19T04:39:12;11.30;99.90
25949;DHT22;13961;51.178;4.448;2023-02-19T04:41:40;11.30;99.90
25949;DHT22;13961;51.178;4.448;2023-02-19T04:44:08;11.30;99.90
25949;DHT22;13961;51.178;4.448;2023-02-19T04:46:34;11.40;99.90
25949;DHT22;13961;51.178;4.448;2023-02-19T04:48:59;11.50;99.90
25949;DHT22;13961;51.178;4.448;2023-02-19T04:51:25;11.40;99.90
25949;DHT22;13961;51.178;4.448;2023-02-19T04:53:51;11.50;99.90
25949;DHT22;13961;51.178;4.448;2023-02-19T04:56:16;11.50;99.90
25949;DHT22;13961;51.178;4.448;2023-02-19T04:58:43;11.30;99.90
25949;DHT22;13961;51.178;4.448;2023-02-19T05:01:09;11.30;99.90
25949;DHT22;13961;51.178;4.448;2023-02-19T05:03:36;11.30;99.90
25949;DHT22;13961;51.178;4.448;2023-02-19T05:06:07;11.30;99.90
25949;DHT22;13961;51.178;4.448;2023-02-19T05:08:33;11.20;99.90
25949;DHT22;13961;51.178;4.448;2023-02-19T05:11:00;11.30;99.90
25949;DHT22;13961;51.178;4.448;2023-02-19T05:13:26;11.30;99.90
25949;DHT22;13961;51.178;4.448;2023-02-19T05:16:01;11.30;99.90
25949;DHT22;13961;51.178;4.448;2023-02-19T05:18:28;11.30;99.90
25949;DHT22;13961;51.178;4.448;2023-02-19T05:20:55;11.10;99.90
25949;DHT22;13961;51.178;4.448;2023-02-19T05:23:21;11.10;99.90
25949;DHT22;13961;51.178;4.448;2023-02-19T05:25:47;11.10;99.90
25949;DHT22;13961;51.178;4.448;2023-02-19T05:28:13;11.20;99.90
25949;DHT22;13961;51.178;4.448;2023-02-19T05:30:42;11.20;99.90
25949;DHT22;13961;51.178;4.448;2023-02-19T05:33:08;11.20;99.90
25949;DHT22;13961;51.178;4.448;2023-02-19T05:35:39;11.20;99.90
25949;DHT22;13961;51.178;4.448;2023-02-19T05:38:05;11.10;99.90
25949;DHT22;13961;51.178;4.448;2023-02-19T05:40:33;11.20;99.90
25949;DHT22;13961;51.178;4.448;2023-02-19T05:42:59;11.10;99.90
25949;DHT22;13961;51.178;4.448;2023-02-19T05:45:24;11.10;99.90
25949;DHT22;13961;51.178;4.448;2023-02-19T05:47:50;11.10;99.90
25949;DHT22;13961;51.178;4.448;2023-02-19T05:50:16;10.90;99.90
25949;DHT22;13961;51.178;4.448;2023-02-19T05:52:43;11.00;99.90
25949;DHT22;13961;51.178;4.448;2023-02-19T05:55:10;11.20;99.90
25949;DHT22;13961;51.178;4.448;2023-02-19T05:57:43;11.10;99.90
25949;DHT22;13961;51.178;4.448;2023-02-19T06:00:15;11.10;99.90
25949;DHT22;13961;51.178;4.448;2023-02-19T06:02:41;11.10;99.90
25949;DHT22;13961;51.178;4.448;2023-02-19T06:05:08;11.10;99.90
25949;DHT22;13961;51.178;4.448;2023-02-19T06:07:34;11.10;99.90
25949;DHT22;13961;51.178;4.448;2023-02-19T06:10:00;11.20;99.90
25949;DHT22;13961;51.178;4.448;2023-02-19T06:12:26;10.80;99.90
25949;DHT22;13961;51.178;4.448;2023-02-19T06:14:52;10.70;99.90
25949;DHT22;13961;51.178;4.448;2023-02-19T06:17:18;10.70;99.90
25949;DHT22;13961;51.178;4.448;2023-02-19T06:19:43;10.60;99.90
25949;DHT22;13961;51.178;4.448;2023-02-19T06:22:09;10.60;99.90
25949;DHT22;13961;51.178;4.448;2023-02-19T06:24:35;10.50;99.90
25949;DHT22;13961;51.178;4.448;2023-02-19T06:27:06;10.70;99.90
25949;DHT22;13961;51.178;4.448;2023-02-19T06:29:32;10.70;99.90
25949;DHT22;13961;51.178;4.448;2023-02-19T06:31:59;10.60;99.90
25949;DHT22;13961;51.178;4.448;2023-02-19T06:34:26;10.50;99.90
25949;DHT22;13961;51.178;4.448;2023-02-19T06:36:53;10.70;99.90
25949;DHT22;13961;51.178;4.448;2023-02-19T06:39:18;10.60;99.90
25949;DHT22;13961;51.178;4.448;2023-02-19T06:41:44;10.50;99.90
25949;DHT22;13961;51.178;4.448;2023-02-19T06:44:10;10.60;99.90
25949;DHT22;13961;51.178;4.448;2023-02-19T06:46:35;10.70;99.90
25949;DHT22;13961;51.178;4.448;2023-02-19T06:49:03;10.60;99.90
25949;DHT22;13961;51.178;4.448;2023-02-19T06:51:29;10.60;99.90
25949;DHT22;13961;51.178;4.448;2023-02-19T06:53:59;10.60;99.90
25949;DHT22;13961;51.178;4.448;2023-02-19T06:56:29;10.60;99.90
25949;DHT22;13961;51.178;4.448;2023-02-19T06:58:56;10.70;99.90
25949;DHT22;13961;51.178;4.448;2023-02-19T07:01:26;10.70;99.90
25949;DHT22;13961;51.178;4.448;2023-02-19T07:03:52;10.70;99.90
25949;DHT22;13961;51.178;4.448;2023-02-19T07:06:19;10.80;99.90
25949;DHT22;13961;51.178;4.448;2023-02-19T07:08:45;10.90;99.90
25949;DHT22;13961;51.178;4.448;2023-02-19T07:11:10;10.90;99.90
25949;DHT22;13961;51.178;4.448;2023-02-19T07:13:39;10.80;99.90
25949;DHT22;13961;51.178;4.448;2023-02-19T07:16:06;10.60;99.90
25949;DHT22;13961;51.178;4.448;2023-02-19T07:18:32;10.70;99.90
25949;DHT22;13961;51.178;4.448;2023-02-19T07:21:08;10.70;99.90
25949;DHT22;13961;51.178;4.448;2023-02-19T07:23:35;10.90;99.90
25949;DHT22;13961;51.178;4.448;2023-02-19T07:26:01;10.90;99.90
25949;DHT22;13961;51.178;4.448;2023-02-19T07:28:27;11.00;99.90
25949;DHT22;13961;51.178;4.448;2023-02-19T07:31:03;11.00;99.90
25949;DHT22;13961;51.178;4.448;2023-02-19T07:33:30;10.80;99.90
25949;DHT22;13961;51.178;4.448;2023-02-19T07:35:55;10.90;99.90
25949;DHT22;13961;51.178;4.448;2023-02-19T07:38:22;10.90;99.90
25949;DHT22;13961;51.178;4.448;2023-02-19T07:40:59;11.00;99.90
25949;DHT22;13961;51.178;4.448;2023-02-19T07:43:30;11.00;99.90
25949;DHT22;13961;51.178;4.448;2023-02-19T07:45:56;11.00;99.90
25949;DHT22;13961;51.178;4.448;2023-02-19T07:48:22;11.00;99.90
25949;DHT22;13961;51.178;4.448;2023-02-19T07:50:55;11.00;99.90
25949;DHT22;13961;51.178;4.448;2023-02-19T07:53:22;11.00;99.90
25949;DHT22;13961;51.178;4.448;2023-02-19T07:55:48;11.00;99.90
25949;DHT22;13961;51.178;4.448;2023-02-19T07:58:13;11.10;99.90
25949;DHT22;13961;51.178;4.448;2023-02-19T08:00:39;11.00;99.90
25949;DHT22;13961;51.178;4.448;2023-02-19T08:03:05;11.10;99.90
25949;DHT22;13961;51.178;4.448;2023-02-19T08:05:39;11.10;99.90
25949;DHT22;13961;51.178;4.448;2023-02-19T08:08:07;11.20;99.90
25949;DHT22;13961;51.178;4.448;2023-02-19T08:10:33;11.20;99.90
25949;DHT22;13961;51.178;4.448;2023-02-19T08:13:17;11.30;99.90
25949;DHT22;13961;51.178;4.448;2023-02-19T08:16:11;11.40;99.90
25949;DHT22;13961;51.178;4.448;2023-02-19T08:18:38;11.40;99.90
25949;DHT22;13961;51.178;4.448;2023-02-19T08:21:03;11.30;99.90
25949;DHT22;13961;51.178;4.448;2023-02-19T08:23:29;11.40;99.90
25949;DHT22;13961;51.178;4.448;2023-02-19T08:25:59;11.40;99.90
25949;DHT22;13961;51.178;4.448;2023-02-19T08:28:25;11.50;99.90
25949;DHT22;13961;51.178;4.448;2023-02-19T08:30:51;11.60;99.90
25949;DHT22;13961;51.178;4.448;2023-02-19T08:33:19;11.70;99.90
25949;DHT22;13961;51.178;4.448;2023-02-19T08:35:46;11.60;99.90
25949;DHT22;13961;51.178;4.448;2023-02-19T08:38:13;11.50;99.90
25949;DHT22;13961;51.178;4.448;2023-02-19T08:40:41;11.40;99.90
25949;DHT22;13961;51.178;4.448;2023-02-19T08:43:09;11.20;99.90
25949;DHT22;13961;51.178;4.448;2023-02-19T08:45:40;11.20;99.90
25949;DHT22;13961;51.178;4.448;2023-02-19T08:48:06;11.20;99.90
25949;DHT22;13961;51.178;4.448;2023-02-19T08:50:32;11.30;99.90
25949;DHT22;13961;51.178;4.448;2023-02-19T08:52:59;11.30;99.90
25949;DHT22;13961;51.178;4.448;2023-02-19T08:55:25;11.50;99.90
25949;DHT22;13961;51.178;4.448;2023-02-19T08:57:50;11.70;99.90
25949;DHT22;13961;51.178;4.448;2023-02-19T09:00:16;11.70;99.90
25949;DHT22;13961;51.178;4.448;2023-02-19T09:02:42;11.70;99.90
25949;DHT22;13961;51.178;4.448;2023-02-19T09:05:08;11.60;99.90
25949;DHT22;13961;51.178;4.448;2023-02-19T09:07:35;11.70;99.90
25949;DHT22;13961;51.178;4.448;2023-02-19T09:10:00;11.50;99.90
25949;DHT22;13961;51.178;4.448;2023-02-19T09:12:26;11.50;99.90
25949;DHT22;13961;51.178;4.448;2023-02-19T09:14:52;11.70;99.90
25949;DHT22;13961;51.178;4.448;2023-02-19T09:17:17;11.80;99.90
25949;DHT22;13961;51.178;4.448;2023-02-19T09:19:43;11.60;99.90
25949;DHT22;13961;51.178;4.448;2023-02-19T09:22:09;11.50;99.90
25949;DHT22;13961;51.178;4.448;2023-02-19T09:24:34;11.50;99.90
25949;DHT22;13961;51.178;4.448;2023-02-19T09:27:00;11.40;99.90
25949;DHT22;13961;51.178;4.448;2023-02-19T09:29:27;11.50;99.90
25949;DHT22;13961;51.178;4.448;2023-02-19T09:31:57;11.60;99.90
25949;DHT22;13961;51.178;4.448;2023-02-19T09:34:24;11.70;99.90
25949;DHT22;13961;51.178;4.448;2023-02-19T09:36:50;11.80;99.90
25949;DHT22;13961;51.178;4.448;2023-02-19T09:39:15;12.00;99.90
25949;DHT22;13961;51.178;4.448;2023-02-19T09:41:48;12.10;99.90
25949;DHT22;13961;51.178;4.448;2023-02-19T09:44:28;12.10;99.90
25949;DHT22;13961;51.178;4.448;2023-02-19T09:46:55;12.40;99.90
25949;DHT22;13961;51.178;4.448;2023-02-19T09:51:51;12.30;99.90
25949;DHT22;13961;51.178;4.448;2023-02-19T09:54:25;12.20;99.90
25949;DHT22;13961;51.178;4.448;2023-02-19T09:56:56;12.20;99.90
25949;DHT22;13961;51.178;4.448;2023-02-19T09:59:28;11.70;99.90
25949;DHT22;13961;51.178;4.448;2023-02-19T10:02:15;11.80;99.90
25949;DHT22;13961;51.178;4.448;2023-02-19T10:04:43;11.80;99.90
25949;DHT22;13961;51.178;4.448;2023-02-19T10:07:18;11.80;99.90
25949;DHT22;13961;51.178;4.448;2023-02-19T10:09:45;12.10;99.90
25949;DHT22;13961;51.178;4.448;2023-02-19T10:12:25;12.00;99.90
25949;DHT22;13961;51.178;4.448;2023-02-19T10:14:53;11.90;99.90
25949;DHT22;13961;51.178;4.448;2023-02-19T10:17:23;12.10;99.90
25949;DHT22;13961;51.178;4.448;2023-02-19T10:19:53;12.20;99.90
25949;DHT22;13961;51.178;4.448;2023-02-19T10:22:19;12.10;99.90
25949;DHT22;13961;51.178;4.448;2023-02-19T10:24:49;12.10;99.90
25949;DHT22;13961;51.178;4.448;2023-02-19T10:27:16;11.90;99.90
25949;DHT22;13961;51.178;4.448;2023-02-19T10:29:43;11.90;99.90
25949;DHT22;13961;51.178;4.448;2023-02-19T10:32:19;11.70;99.90
25949;DHT22;13961;51.178;4.448;2023-02-19T10:35:12;11.70;99.90
25949;DHT22;13961;51.178;4.448;2023-02-19T10:37:49;11.80;99.90
25949;DHT22;13961;51.178;4.448;2023-02-19T10:40:18;11.90;99.90
25949;DHT22;13961;51.178;4.448;2023-02-19T10:42:50;11.90;99.90
25949;DHT22;13961;51.178;4.448;2023-02-19T10:45:20;12.00;99.90
25949;DHT22;13961;51.178;4.448;2023-02-19T10:47:48;12.10;99.90
25949;DHT22;13961;51.178;4.448;2023-02-19T10:50:30;12.20;99.90
25949;DHT22;13961;51.178;4.448;2023-02-19T10:52:58;11.90;99.90
25949;DHT22;13961;51.178;4.448;2023-02-19T10:55:33;11.80;99.90
25949;DHT22;13961;51.178;4.448;2023-02-19T10:58:25;11.70;99.90
25949;DHT22;13961;51.178;4.448;2023-02-19T11:01:15;11.70;99.90
25949;DHT22;13961;51.178;4.448;2023-02-19T11:03:43;11.80;99.90
25949;DHT22;13961;51.178;4.448;2023-02-19T11:06:10;11.80;99.90
25949;DHT22;13961;51.178;4.448;2023-02-19T11:08:58;11.90;99.90
25949;DHT22;13961;51.178;4.448;2023-02-19T11:11:34;12.10;99.90
25949;DHT22;13961;51.178;4.448;2023-02-19T11:14:14;12.10;99.90
25949;DHT22;13961;51.178;4.448;2023-02-19T11:16:49;11.90;99.90
25949;DHT22;13961;51.178;4.448;2023-02-19T11:19:39;11.80;99.90
25949;DHT22;13961;51.178;4.448;2023-02-19T11:22:32;11.60;99.90
25949;DHT22;13961;51.178;4.448;2023-02-19T11:35:41;12.40;99.90
25949;DHT22;13961;51.178;4.448;2023-02-19T11:38:11;12.30;99.90
25949;DHT22;13961;51.178;4.448;2023-02-19T11:46:14;12.20;99.90
25949;DHT22;13961;51.178;4.448;2023-02-19T11:48:52;12.20;99.90
25949;DHT22;13961;51.178;4.448;2023-02-19T11:51:55;12.00;99.90
25949;DHT22;13961;51.178;4.448;2023-02-19T12:00:19;12.30;99.90
25949;DHT22;13961;51.178;4.448;2023-02-19T12:13:48;12.90;99.90
25949;DHT22;13961;51.178;4.448;2023-02-19T12:22:13;13.10;99.90
25949;DHT22;13961;51.178;4.448;2023-02-19T12:35:29;12.50;99.90
25949;DHT22;13961;51.178;4.448;2023-02-19T12:41:11;12.30;99.90
25949;DHT22;13961;51.178;4.448;2023-02-19T12:43:45;12.40;99.90
25949;DHT22;13961;51.178;4.448;2023-02-19T12:46:25;12.50;99.90
25949;DHT22;13961;51.178;4.448;2023-02-19T12:49:04;12.60;99.90
25949;DHT22;13961;51.178;4.448;2023-02-19T12:54:33;12.30;99.90
25949;DHT22;13961;51.178;4.448;2023-02-19T12:57:05;12.10;99.90
25949;DHT22;13961;51.178;4.448;2023-02-19T13:02:09;11.70;99.90
25949;DHT22;13961;51.178;4.448;2023-02-19T13:07:34;11.50;99.90
25949;DHT22;13961;51.178;4.448;2023-02-19T13:10:54;11.20;99.90
25949;DHT22;13961;51.178;4.448;2023-02-19T13:13:04;11.20;99.90
25949;DHT22;13961;51.178;4.448;2023-02-19T13:15:41;11.40;99.90
25949;DHT22;13961;51.178;4.448;2023-02-19T13:18:18;11.50;99.90
25949;DHT22;13961;51.178;4.448;2023-02-19T13:20:45;11.70;99.90
25949;DHT22;13961;51.178;4.448;2023-02-19T13:37:14;11.60;99.90
25949;DHT22;13961;51.178;4.448;2023-02-19T13:40:05;11.60;99.90
25949;DHT22;13961;51.178;4.448;2023-02-19T13:42:41;11.70;99.90
25949;DHT22;13961;51.178;4.448;2023-02-19T13:45:21;11.50;99.90
25949;DHT22;13961;51.178;4.448;2023-02-19T13:50:29;11.60;99.90
25949;DHT22;13961;51.178;4.448;2023-02-19T13:53:02;11.50;99.90
25949;DHT22;13961;51.178;4.448;2023-02-19T13:55:47;11.60;99.90
25949;DHT22;13961;51.178;4.448;2023-02-19T14:01:08;11.60;99.90
25949;DHT22;13961;51.178;4.448;2023-02-19T14:06:06;11.50;99.90
25949;DHT22;13961;51.178;4.448;2023-02-19T14:08:56;11.40;99.90
25949;DHT22;13961;51.178;4.448;2023-02-19T14:14:24;11.00;99.90
25949;DHT22;13961;51.178;4.448;2023-02-19T14:19:53;10.90;99.90
25949;DHT22;13961;51.178;4.448;2023-02-19T14:28:27;11.00;99.90
25949;DHT22;13961;51.178;4.448;2023-02-19T14:31:08;11.00;99.90
25949;DHT22;13961;51.178;4.448;2023-02-19T14:33:37;11.10;99.90
25949;DHT22;13961;51.178;4.448;2023-02-19T14:38:52;11.10;99.90
25949;DHT22;13961;51.178;4.448;2023-02-19T14:41:21;11.00;99.90
25949;DHT22;13961;51.178;4.448;2023-02-19T14:43:53;10.90;99.90
25949;DHT22;13961;51.178;4.448;2023-02-19T14:46:40;11.00;99.90
25949;DHT22;13961;51.178;4.448;2023-02-19T14:51:52;11.10;99.90
25949;DHT22;13961;51.178;4.448;2023-02-19T14:54:32;11.00;99.90
25949;DHT22;13961;51.178;4.448;2023-02-19T14:57:00;11.00;99.90
25949;DHT22;13961;51.178;4.448;2023-02-19T14:59:28;11.30;99.90
25949;DHT22;13961;51.178;4.448;2023-02-19T15:01:56;11.50;99.90
25949;DHT22;13961;51.178;4.448;2023-02-19T15:04:27;11.30;99.90
25949;DHT22;13961;51.178;4.448;2023-02-19T15:06:54;11.10;99.90
25949;DHT22;13961;51.178;4.448;2023-02-19T15:09:27;11.20;99.90
25949;DHT22;13961;51.178;4.448;2023-02-19T15:11:55;11.20;99.90
25949;DHT22;13961;51.178;4.448;2023-02-19T15:14:23;11.50;99.90
25949;DHT22;13961;51.178;4.448;2023-02-19T15:17:00;11.40;99.90
25949;DHT22;13961;51.178;4.448;2023-02-19T15:19:28;11.40;99.90
25949;DHT22;13961;51.178;4.448;2023-02-19T15:21:57;11.50;99.90
25949;DHT22;13961;51.178;4.448;2023-02-19T15:24:23;11.60;99.90
25949;DHT22;13961;51.178;4.448;2023-02-19T15:26:50;11.70;99.90
25949;DHT22;13961;51.178;4.448;2023-02-19T15:29:19;11.70;99.90
25949;DHT22;13961;51.178;4.448;2023-02-19T15:31:57;11.40;99.90
25949;DHT22;13961;51.178;4.448;2023-02-19T15:34:27;11.10;99.90
25949;DHT22;13961;51.178;4.448;2023-02-19T15:37:05;11.00;99.90
25949;DHT22;13961;51.178;4.448;2023-02-19T15:39:36;11.00;99.90
25949;DHT22;13961;51.178;4.448;2023-02-19T15:42:04;10.80;99.90
25949;DHT22;13961;51.178;4.448;2023-02-19T15:47:17;10.70;99.90
25949;DHT22;13961;51.178;4.448;2023-02-19T15:49:57;10.80;99.90
25949;DHT22;13961;51.178;4.448;2023-02-19T15:55:18;10.40;99.90
25949;DHT22;13961;51.178;4.448;2023-02-19T15:58:29;10.40;99.90
25949;DHT22;13961;51.178;4.448;2023-02-19T16:00:53;10.30;99.90
25949;DHT22;13961;51.178;4.448;2023-02-19T16:03:27;10.20;99.90
25949;DHT22;13961;51.178;4.448;2023-02-19T16:06:08;10.30;99.90
25949;DHT22;13961;51.178;4.448;2023-02-19T16:08:43;10.30;99.90
25949;DHT22;13961;51.178;4.448;2023-02-19T16:13:47;10.20;99.90
25949;DHT22;13961;51.178;4.448;2023-02-19T16:16:24;10.30;99.90
25949;DHT22;13961;51.178;4.448;2023-02-19T16:18:51;10.30;99.90
25949;DHT22;13961;51.178;4.448;2023-02-19T16:21:20;10.30;99.90
25949;DHT22;13961;51.178;4.448;2023-02-19T16:23:50;10.40;99.90
25949;DHT22;13961;51.178;4.448;2023-02-19T16:26:16;10.50;99.90
25949;DHT22;13961;51.178;4.448;2023-02-19T16:28:42;10.60;99.90
25949;DHT22;13961;51.178;4.448;2023-02-19T16:31:10;10.60;99.90
25949;DHT22;13961;51.178;4.448;2023-02-19T16:33:46;10.60;99.90
25949;DHT22;13961;51.178;4.448;2023-02-19T16:47:19;10.20;99.90
25949;DHT22;13961;51.178;4.448;2023-02-19T16:49:47;10.10;99.90
25949;DHT22;13961;51.178;4.448;2023-02-19T16:52:14;10.20;99.90
25949;DHT22;13961;51.178;4.448;2023-02-19T16:54:41;10.30;99.90
25949;DHT22;13961;51.178;4.448;2023-02-19T16:57:08;10.20;99.90
25949;DHT22;13961;51.178;4.448;2023-02-19T16:59:34;10.30;99.90
25949;DHT22;13961;51.178;4.448;2023-02-19T17:02:04;10.30;99.90
25949;DHT22;13961;51.178;4.448;2023-02-19T17:04:30;10.20;99.90
25949;DHT22;13961;51.178;4.448;2023-02-19T17:06:56;10.30;99.90
25949;DHT22;13961;51.178;4.448;2023-02-19T17:09:22;10.30;99.90
25949;DHT22;13961;51.178;4.448;2023-02-19T17:11:48;10.30;99.90
25949;DHT22;13961;51.178;4.448;2023-02-19T17:14:13;10.20;99.90
25949;DHT22;13961;51.178;4.448;2023-02-19T17:16:39;10.20;99.90
25949;DHT22;13961;51.178;4.448;2023-02-19T17:19:13;9.90;99.90
25949;DHT22;13961;51.178;4.448;2023-02-19T17:21:39;9.80;99.90
25949;DHT22;13961;51.178;4.448;2023-02-19T17:24:04;9.60;99.90
25949;DHT22;13961;51.178;4.448;2023-02-19T17:26:31;9.70;99.90
25949;DHT22;13961;51.178;4.448;2023-02-19T17:28:58;9.90;99.90
25949;DHT22;13961;51.178;4.448;2023-02-19T17:31:24;10.00;99.90
25949;DHT22;13961;51.178;4.448;2023-02-19T17:33:51;9.80;99.90
25949;DHT22;13961;51.178;4.448;2023-02-19T17:36:25;9.60;99.90
25949;DHT22;13961;51.178;4.448;2023-02-19T17:38:52;9.60;99.90
25949;DHT22;13961;51.178;4.448;2023-02-19T17:41:18;9.70;99.90
25949;DHT22;13961;51.178;4.448;2023-02-19T17:43:43;9.50;99.90
25949;DHT22;13961;51.178;4.448;2023-02-19T17:46:14;9.30;99.90
25949;DHT22;13961;51.178;4.448;2023-02-19T17:48:42;9.50;99.90
25949;DHT22;13961;51.178;4.448;2023-02-19T17:51:09;9.30;99.90
25949;DHT22;13961;51.178;4.448;2023-02-19T17:53:35;9.20;99.90
25949;DHT22;13961;51.178;4.448;2023-02-19T17:56:01;9.00;99.90
25949;DHT22;13961;51.178;4.448;2023-02-19T17:58:26;8.90;99.90
25949;DHT22;13961;51.178;4.448;2023-02-19T18:00:52;9.00;99.90
25949;DHT22;13961;51.178;4.448;2023-02-19T18:03:18;9.20;99.90
25949;DHT22;13961;51.178;4.448;2023-02-19T18:05:43;9.30;99.90
25949;DHT22;13961;51.178;4.448;2023-02-19T18:08:09;9.20;99.90
25949;DHT22;13961;51.178;4.448;2023-02-19T18:10:35;9.30;99.90
25949;DHT22;13961;51.178;4.448;2023-02-19T18:13:01;9.40;99.90
25949;DHT22;13961;51.178;4.448;2023-02-19T18:15:27;9.30;99.90
25949;DHT22;13961;51.178;4.448;2023-02-19T18:17:53;9.40;99.90
25949;DHT22;13961;51.178;4.448;2023-02-19T18:20:22;9.60;99.90
25949;DHT22;13961;51.178;4.448;2023-02-19T18:22:48;9.70;99.90
25949;DHT22;13961;51.178;4.448;2023-02-19T18:25:15;9.70;99.90
25949;DHT22;13961;51.178;4.448;2023-02-19T18:27:41;9.80;99.90
25949;DHT22;13961;51.178;4.448;2023-02-19T18:30:07;9.70;99.90
25949;DHT22;13961;51.178;4.448;2023-02-19T18:32:34;9.70;99.90
25949;DHT22;13961;51.178;4.448;2023-02-19T18:34:59;9.70;99.90
25949;DHT22;13961;51.178;4.448;2023-02-19T18:37:28;9.70;99.90
25949;DHT22;13961;51.178;4.448;2023-02-19T18:39:58;9.70;99.90
25949;DHT22;13961;51.178;4.448;2023-02-19T18:42:27;9.80;99.90
25949;DHT22;13961;51.178;4.448;2023-02-19T18:44:54;9.50;99.90